DW7898 Weather Reports


Display with metric or nautical units.
time (UTC)temp
F
wind
direction
speed
MPH
gust
MPH
rain 1hr
in
rain 24hr
in
rain mn
in
humidity
%
barometer
mb
20220528042342 63 42 0.0 1.0 0.00 0.00 0.00 79 1014.6
20220528041348 64 42 0.0 1.0 0.00 0.00 0.00 78 1014.7
20220528040342 64 42 0.0 1.0 0.00 0.00 0.00 78 1014.9
20220528035349 64 41 1.0 2.0 0.00 0.00 0.00 78 1014.7
20220528034350 64 42 0.0 1.0 0.00 0.00 0.00 78 1014.7
20220528033338 64 42 0.0 1.0 0.00 0.00 0.00 77 1014.7
20220528032351 64 42 0.0 1.0 0.00 0.00 0.00 77 1014.9
20220528031341 64 42 0.0 1.0 0.00 0.00 0.00 77 1014.9
20220528030355 64 42 0.0 2.0 0.00 0.00 0.00 76 1015.0
20220528025346 65 42 1.0 4.0 0.00 0.00 0.00 75 1015.2
20220528024337 65 41 0.0 3.0 0.00 0.00 0.00 75 1015.2
20220528023358 65 42 0.0 3.0 0.00 0.00 0.00 75 1015.4
20220528022350 65 42 2.0 3.0 0.00 0.00 0.00 75 1015.4
20220528021340 65 43 1.0 2.0 0.00 0.00 0.00 75 1015.6
20220528020342 65 45 2.0 4.0 0.00 0.00 0.00 74 1015.7
20220528015348 65 53 2.0 3.0 0.00 0.00 0.00 74 1015.8
20220528014353 66 54 0.0 0.0 0.00 0.00 0.00 73 1015.8
20220528013354 66 54 0.0 0.0 0.00 0.00 0.00 72 1016.0
20220528012350 66 54 0.0 0.0 0.00 0.00 0.00 72 1016.0
20220528011349 66 54 0.0 0.0 0.00 0.00 0.00 71 1016.1
20220528010348 66 54 0.0 0.0 0.00 0.00 0.00 71 1016.3
20220528005342 66 54 0.0 0.0 0.00 0.00 0.00 71 1016.4
20220528004343 67 54 0.0 1.0 0.00 0.00 0.00 71 1016.5
20220528003349 67 54 1.0 4.0 0.00 0.00 0.00 70 1016.7
20220528002349 68 52 2.0 4.0 0.00 0.00 0.00 69 1016.7
20220528001351 68 75 1.0 3.0 0.00 0.00 0.00 68 1016.8
20220528000339 69 80 1.0 2.0 0.00 0.00 0.00 68 1016.9
20220527235351 69 81 0.0 1.0 0.00 0.00 0.00 67 1016.9
20220527234347 69 81 0.0 1.0 0.00 0.00 0.00 67 1017.0
20220527233351 70 81 1.0 3.0 0.00 0.00 0.00 66 1017.1
20220527232349 70 83 1.0 2.0 0.00 0.00 0.00 66 1017.3
20220527231346 70 85 0.0 2.0 0.00 0.00 0.00 65 1017.3
20220527230353 70 85 2.0 2.0 0.00 0.00 0.00 65 1017.4
20220527225352 70 94 0.0 1.0 0.00 0.00 0.00 65 1017.5
20220527224339 71 94 1.0 2.0 0.00 0.00 0.00 64 1017.5
20220527223344 71 96 1.0 3.0 0.00 0.00 0.00 63 1017.6
20220527222352 72 106 0.0 2.0 0.00 0.00 0.00 61 1017.6
20220527221340 72 109 0.0 2.0 0.00 0.00 0.00 59 1017.6
20220527220354 72 109 0.0 2.0 0.00 0.00 0.00 59 1017.7
20220527215342 73 109 1.0 3.0 0.00 0.00 0.00 58 1017.6
20220527214359 73 109 1.0 3.0 0.00 0.00 0.00 57 1017.6
20220527213354 73 108 0.0 2.0 0.00 0.00 0.00 56 1017.6
20220527212351 74 108 0.0 1.0 0.00 0.00 0.00 56 1017.6
20220527211349 74 108 0.0 2.0 0.00 0.00 0.00 56 1017.7
20220527210339 74 108 0.0 1.0 0.00 0.00 0.00 55 1017.7
20220527205353 74 108 0.0 2.0 0.00 0.00 0.00 55 1017.5
20220527204353 74 108 0.0 3.0 0.00 0.00 0.00 55 1017.5
20220527203345 74 112 2.0 3.0 0.00 0.00 0.00 55 1017.4
20220527202358 75 109 2.0 5.0 0.00 0.00 0.00 54 1017.3
20220527201350 75 111 2.0 3.0 0.00 0.00 0.00 53 1017.2
20220527200353 76 103 1.0 5.0 0.00 0.00 0.00 52 1017.1
20220527195344 77 98 3.0 4.0 0.00 0.00 0.00 51 1017.1
20220527194347 78 114 1.0 3.0 0.00 0.00 0.00 49 1017.1
20220527193343 79 162 1.0 3.0 0.00 0.00 0.00 46 1016.9
20220527192347 79 245 1.0 2.0 0.00 0.00 0.00 45 1016.9
20220527191343 80 245 1.0 3.0 0.00 0.00 0.00 45 1016.7
20220527190341 80 246 3.0 4.0 0.00 0.00 0.00 44 1016.7
20220527185353 81 257 2.0 4.0 0.00 0.00 0.00 43 1016.6
20220527184358 81 244 1.0 4.0 0.00 0.00 0.00 44 1016.7
20220527183402 81 248 3.0 5.0 0.00 0.00 0.00 43 1016.7
20220527182352 81 212 2.0 5.0 0.00 0.00 0.00 43 1016.6
20220527181359 82 218 5.0 8.0 0.00 0.00 0.00 42 1016.6
20220527180342 82 234 4.0 5.0 0.00 0.00 0.00 42 1016.5
20220527175351 82 252 2.0 5.0 0.00 0.00 0.00 43 1016.4
20220527174351 82 251 4.0 7.0 0.00 0.00 0.00 43 1016.5
20220527173341 83 207 4.0 8.0 0.00 0.00 0.00 42 1016.4
20220527172342 83 135 2.0 6.0 0.00 0.00 0.00 41 1016.3
20220527171354 83 140 4.0 7.0 0.00 0.00 0.00 40 1016.2
20220527170348 83 60 2.0 8.0 0.00 0.00 0.00 42 1016.3
20220527165346 83 131 4.0 8.0 0.00 0.00 0.00 41 1016.3
20220527164354 84 142 3.0 8.0 0.00 0.00 0.00 40 1016.4
20220527163348 84 114 2.0 6.0 0.00 0.00 0.00 40 1016.5
20220527162350 83 113 2.0 6.0 0.00 0.00 0.00 41 1016.6
20220527161343 83 113 4.0 7.0 0.00 0.00 0.00 40 1016.7
20220527160347 83 136 3.0 6.0 0.00 0.00 0.00 40 1016.7
20220527155358 83 133 4.0 7.0 0.00 0.00 0.00 40 1016.7
20220527154352 82 121 4.0 8.0 0.00 0.00 0.00 43 1017.0
20220527153342 81 141 3.0 8.0 0.00 0.00 0.00 46 1016.9
20220527152357 81 120 5.0 11.0 0.00 0.00 0.00 48 1016.9
20220527151342 81 114 5.0 11.0 0.00 0.00 0.00 48 1016.9
20220527150341 81 97 6.0 10.0 0.00 0.00 0.00 49 1017.0
20220527145350 81 135 5.0 10.0 0.00 0.00 0.00 52 1017.2
20220527144350 79 140 5.0 15.0 0.00 0.00 0.00 52 1017.2
20220527143347 80 137 8.0 15.0 0.00 0.00 0.00 51 1017.2
20220527142349 81 188 1.0 11.0 0.00 0.00 0.00 49 1017.2
20220527141342 81 151 8.0 11.0 0.00 0.00 0.00 46 1017.3
20220527140343 82 129 4.0 11.0 0.00 0.00 0.00 46 1017.3
20220527135355 84 185 5.0 11.0 0.00 0.00 0.00 42 1017.3
20220527134346 85 66 4.0 9.0 0.00 0.00 0.00 36 1017.3
20220527133348 84 88 0.0 8.0 0.00 0.00 0.00 37 1017.4
20220527132357 83 196 2.0 7.0 0.00 0.00 0.00 37 1017.5
20220527131350 84 265 2.0 9.0 0.00 0.00 0.00 38 1017.5
20220527130345 84 271 4.0 8.0 0.00 0.00 0.00 38 1017.6
20220527125400 84 269 2.0 4.0 0.00 0.00 0.00 37 1017.7
20220527124347 83 74 1.0 7.0 0.00 0.00 0.00 37 1017.8
20220527123359 82 0 0.0 4.0 0.00 0.00 0.00 38 1017.9
20220527122346 82 270 4.0 7.0 0.00 0.00 0.00 38 1017.9
20220527121351 82 261 2.0 6.0 0.00 0.00 0.00 39 1017.9
20220527120350 81 263 5.0 7.0 0.00 0.00 0.00 39 1018.2
20220527115345 81 186 3.0 9.0 0.00 0.00 0.00 40 1018.3
20220527114352 82 233 3.0 5.0 0.00 0.00 0.00 42 1018.4
20220527113339 80 247 2.0 4.0 0.00 0.00 0.00 42 1018.6
20220527112352 79 161 2.0 4.0 0.00 0.00 0.00 44 1018.8
20220527111344 78 141 1.0 4.0 0.00 0.00 0.00 46 1019.0
20220527110345 77 147 0.0 4.0 0.00 0.00 0.00 49 1019.1
20220527105357 76 151 2.0 4.0 0.00 0.00 0.00 49 1019.1
20220527104344 76 218 0.0 2.0 0.00 0.00 0.00 50 1019.2
20220527103343 75 109 2.0 5.0 0.00 0.00 0.00 51 1019.2
20220527102355 74 123 1.0 2.0 0.00 0.00 0.00 52 1019.2
20220527101349 74 125 1.0 5.0 0.00 0.00 0.00 52 1019.4
20220527100345 74 168 1.0 3.0 0.00 0.00 0.00 53 1019.4
20220527095340 73 128 1.0 3.0 0.00 0.00 0.00 53 1019.4
20220527094338 72 115 0.0 5.0 0.00 0.00 0.00 54 1019.6
20220527093340 72 108 3.0 4.0 0.00 0.00 0.00 54 1019.5
20220527092346 71 114 3.0 5.0 0.00 0.00 0.00 54 1019.5
20220527091344 71 262 1.0 6.0 0.00 0.00 0.00 54 1019.3
20220527090339 71 295 0.0 3.0 0.00 0.00 0.00 54 1019.4
20220527085348 70 59 1.0 4.0 0.00 0.00 0.00 54 1019.4
20220527084349 70 52 0.0 2.0 0.00 0.00 0.00 58 1019.3
20220527083353 69 52 1.0 3.0 0.00 0.00 0.00 59 1019.4
20220527082340 69 44 0.0 3.0 0.00 0.00 0.00 59 1019.3
20220527081342 68 46 2.0 3.0 0.00 0.00 0.00 62 1019.4
20220527080355 67 0 1.0 2.0 0.00 0.00 0.00 62 1019.2
20220527075346 66 0 1.0 2.0 0.00 0.00 0.00 64 1019.4
20220527074345 66 0 0.0 2.0 0.00 0.00 0.00 66 1019.5
20220527073338 65 0 0.0 2.0 0.00 0.00 0.00 67 1019.4
20220527072345 66 0 2.0 5.0 0.00 0.00 0.00 66 1019.4
20220527071345 65 147 0.0 2.0 0.00 0.00 0.00 65 1019.7
20220527070338 65 148 0.0 2.0 0.00 0.00 0.00 65 1019.4
20220527065344 65 148 0.0 2.0 0.00 0.00 0.00 66 1019.5
20220527064338 64 151 0.0 1.0 0.00 0.00 0.00 67 1019.4
20220527063338 64 150 0.0 4.0 0.00 0.00 0.00 67 1019.4
20220527062355 63 191 2.0 3.0 0.00 0.00 0.00 68 1019.2
20220527061346 63 234 0.0 2.0 0.00 0.00 0.00 69 1019.1
20220527060348 63 234 0.0 3.0 0.00 0.00 0.00 70 1019.0
20220527055344 62 234 0.0 4.0 0.00 0.00 0.00 70 1018.9
20220527054343 62 211 2.0 3.0 0.00 0.00 0.00 71 1018.8
20220527053348 62 159 0.0 4.0 0.00 0.00 0.00 72 1018.8
20220527052344 62 182 0.0 3.0 0.00 0.00 0.00 73 1018.8
20220527051339 62 182 2.0 3.0 0.00 0.00 0.00 73 1018.8
20220527050344 61 190 0.0 3.0 0.00 0.00 0.00 74 1018.6
20220527045341 61 191 1.0 3.0 0.00 0.00 0.00 74 1018.5
20220527044348 61 188 0.0 2.0 0.00 0.00 0.00 75 1018.6
20220527043351 61 187 0.0 1.0 0.00 0.00 0.00 76 1018.8